Time;durP1;ratioP1;P1;durP2;ratioP2;P2;SDS_P1;SDS_P2;PMS_P1;PMS_P2;Temp;Humidity;BMP_temperature;BMP_pressure;BME280_temperature;BME280_humidity;BME280_pressure;Samples;Min_cycle;Max_cycle;Signal;HPM_P1;HPM_P2
2021/10/28 00:13:51;;;;;;;;;19.25;18.50;;;;;-147.17;100.00;49814.50;5061950;28;51049;-59
2021/10/28 00:16:24;;;;;;;;;17.25;16.00;;;;;-147.17;100.00;49808.59;5069947;28;51770;-59
2021/10/28 00:18:59;;;;;;;;;17.75;17.75;;;;;-147.17;100.00;49832.22;5058553;28;51002;-59
2021/10/28 00:21:25;;;;;;;;;19.75;18.00;;;;;-147.17;100.00;49836.16;5070435;28;50999;-59
2021/10/28 00:23:51;;;;;;;;;18.25;17.75;;;;;-147.17;100.00;49798.75;5072096;28;51336;-59
2021/10/28 00:26:18;;;;;;;;;17.00;17.00;;;;;-147.17;100.00;49779.09;5075838;28;51870;-59
2021/10/28 00:28:44;;;;;;;;;19.00;19.00;;;;;-147.17;100.00;49790.88;5064348;28;50939;-58
2021/10/28 00:31:10;;;;;;;;;20.00;19.75;;;;;-147.17;100.00;49784.97;5074227;28;51074;-58
2021/10/28 00:33:36;;;;;;;;;17.50;16.50;;;;;-147.17;100.00;49784.97;5073980;28;50864;-59
2021/10/28 00:36:05;;;;;;;;;21.25;17.75;;;;;-147.17;100.00;49820.41;5075138;28;52872;-59
2021/10/28 00:38:33;;;;;;;;;22.25;21.25;;;;;-147.17;100.00;49788.91;5075674;28;51117;-58
2021/10/28 00:41:02;;;;;;;;;15.25;15.00;;;;;-147.17;100.00;49777.13;5063185;27;51492;-58
2021/10/28 00:43:29;;;;;;;;;18.00;16.75;;;;;-147.17;100.00;49798.75;5064077;28;51084;-58
2021/10/28 00:45:54;;;;;;;;;18.25;18.00;;;;;-147.17;100.00;49790.88;5056128;28;51885;-57
2021/10/28 00:48:20;;;;;;;;;20.00;20.00;;;;;-147.17;100.00;49796.78;5064005;28;51121;-58
2021/10/28 00:50:50;;;;;;;;;16.00;16.00;;;;;-147.17;100.00;49779.09;5054436;28;51264;-58
2021/10/28 00:53:16;;;;;;;;;21.00;21.00;;;;;-147.17;100.00;49812.53;5054773;28;51062;-58
2021/10/28 00:55:42;;;;;;;;;19.25;18.50;;;;;-147.17;100.00;49790.88;5066124;28;52057;-58
2021/10/28 00:58:08;;;;;;;;;17.50;17.50;;;;;-147.17;100.00;49820.41;5064292;28;50888;-58
2021/10/28 01:00:34;;;;;;;;;15.50;15.00;;;;;-147.17;100.00;49779.09;5054522;28;51027;-58
2021/10/28 01:03:00;;;;;;;;;18.00;17.50;;;;;-147.17;100.00;49765.31;5054583;28;51188;-58
2021/10/28 01:05:26;;;;;;;;;18.00;16.25;;;;;-147.17;100.00;49792.84;5053733;28;52642;-58
2021/10/28 01:07:51;;;;;;;;;20.25;19.25;;;;;-147.17;100.00;49771.22;5054393;28;51075;-58
2021/10/28 01:10:16;;;;;;;;;18.75;18.75;;;;;-147.17;100.00;49755.47;5063935;28;51220;-58
2021/10/28 01:12:42;;;;;;;;;20.00;18.50;;;;;-147.17;100.00;49790.88;5057907;28;51392;-58
2021/10/28 01:15:12;;;;;;;;;17.00;16.25;;;;;-147.17;100.00;49786.94;5063660;28;52060;-58
2021/10/28 01:17:38;;;;;;;;;19.00;19.00;;;;;-147.17;100.00;49820.41;5035850;28;51039;-58
2021/10/28 01:20:04;;;;;;;;;19.00;17.50;;;;;-147.17;100.00;49788.91;5048591;28;51804;-59
2021/10/28 01:22:30;;;;;;;;;22.50;20.00;;;;;-147.17;100.00;49769.25;5054260;28;50987;-59
2021/10/28 01:24:55;;;;;;;;;21.00;19.25;;;;;-147.17;100.00;49800.72;5069921;28;51854;-59
2021/10/28 01:27:21;;;;;;;;;16.75;16.75;;;;;-147.17;100.00;49765.31;5073314;28;50986;-59
2021/10/28 01:29:46;;;;;;;;;24.25;19.50;;;;;-147.17;100.00;49777.13;5071147;28;52005;-58
2021/10/28 01:32:11;;;;;;;;;22.75;22.75;;;;;-147.17;100.00;49763.34;5053607;28;51397;-58
2021/10/28 01:34:45;;;;;;;;;20.25;19.00;;;;;-147.17;100.00;49779.09;5069051;28;51018;-58
2021/10/28 01:37:12;;;;;;;;;16.00;14.75;;;;;-147.17;100.00;49792.84;5074282;28;51086;-59
2021/10/28 01:39:38;;;;;;;;;17.25;15.25;;;;;-147.17;100.00;49755.47;5073826;28;51092;-58
2021/10/28 01:42:07;;;;;;;;;17.50;17.00;;;;;-147.17;100.00;49773.19;5063619;28;51554;-58
2021/10/28 01:44:34;;;;;;;;;19.00;18.75;;;;;-147.17;100.00;49781.06;5045776;28;52684;-59
2021/10/28 01:46:59;;;;;;;;;17.00;15.25;;;;;-147.17;100.00;49777.13;5055171;28;51048;-58
2021/10/28 01:49:27;;;;;;;;;18.00;17.75;;;;;-147.17;100.00;49790.88;5028069;28;1129886;-58
2021/10/28 01:51:54;;;;;;;;;23.00;22.00;;;;;-147.17;100.00;49786.94;5070601;28;51258;-58
2021/10/28 01:54:21;;;;;;;;;20.25;19.00;;;;;-147.17;100.00;49761.38;5070244;28;51836;-58
2021/10/28 01:56:47;;;;;;;;;16.25;15.25;;;;;-147.17;100.00;49769.25;5060229;28;51165;-59
2021/10/28 01:59:13;;;;;;;;;20.00;19.50;;;;;-147.17;100.00;49751.53;5055404;28;50991;-58
2021/10/28 02:01:39;;;;;;;;;21.50;20.50;;;;;-147.17;100.00;49784.97;5051076;28;51151;-58
2021/10/28 02:04:04;;;;;;;;;18.00;18.00;;;;;-147.17;100.00;49741.69;5055029;28;52661;-62
2021/10/28 02:06:31;;;;;;;;;21.25;20.00;;;;;-147.17;100.00;49741.69;5063603;28;51166;-58
2021/10/28 02:08:56;;;;;;;;;21.25;19.00;;;;;-147.17;100.00;49767.28;5073894;28;51039;-57
2021/10/28 02:11:22;;;;;;;;;25.75;23.50;;;;;-147.17;100.00;49753.50;5064337;28;51192;-58
2021/10/28 02:13:47;;;;;;;;;20.25;18.25;;;;;-147.17;100.00;49777.13;5064145;28;51924;-58
2021/10/28 02:16:13;;;;;;;;;16.00;15.75;;;;;-147.17;100.00;49753.50;5054713;28;51150;-58
2021/10/28 02:18:38;;;;;;;;;20.50;20.25;;;;;-147.17;100.00;49777.13;5054627;28;51006;-58
2021/10/28 02:21:03;;;;;;;;;23.75;23.75;;;;;-147.17;100.00;49743.66;5057340;28;51285;-58
2021/10/28 02:23:29;;;;;;;;;19.75;17.50;;;;;-147.17;100.00;49749.56;5070245;28;51996;-58
2021/10/28 02:25:54;;;;;;;;;20.75;19.75;;;;;-147.17;100.00;49749.56;5069572;28;51031;-58
2021/10/28 02:28:20;;;;;;;;;21.75;21.00;;;;;-147.17;100.00;49786.94;5062345;28;51124;-58
2021/10/28 02:30:45;;;;;;;;;20.00;18.00;;;;;-147.17;100.00;49723.97;5054622;28;51143;-58
2021/10/28 02:33:11;;;;;;;;;22.00;20.50;;;;;-147.17;100.00;49761.38;5060866;28;51751;-58
2021/10/28 02:35:36;;;;;;;;;16.75;15.00;;;;;-147.17;100.00;49753.50;5053953;28;51001;-58
2021/10/28 02:38:02;;;;;;;;;21.00;20.50;;;;;-147.17;100.00;49757.44;5063227;28;51066;-58
2021/10/28 02:40:28;;;;;;;;;19.50;17.00;;;;;-147.17;100.00;49781.06;5071744;28;51100;-57
2021/10/28 02:42:54;;;;;;;;;20.50;19.50;;;;;-147.17;100.00;49784.97;5061017;28;53021;-58
2021/10/28 02:45:19;;;;;;;;;20.25;19.00;;;;;-147.17;100.00;49808.59;5053901;28;51051;-57
2021/10/28 02:47:45;;;;;;;;;19.50;18.75;;;;;-147.17;100.00;49779.09;5053254;28;50955;-59
2021/10/28 02:50:11;;;;;;;;;19.50;19.25;;;;;-147.17;100.00;49812.53;5053698;28;51003;-58
2021/10/28 02:52:36;;;;;;;;;19.00;16.00;;;;;-147.17;100.00;49794.81;5053554;28;51097;-59
2021/10/28 02:55:04;;;;;;;;;18.25;18.25;;;;;-147.17;100.00;49777.13;5054024;28;51096;-58
2021/10/28 02:57:29;;;;;;;;;16.00;16.00;;;;;-147.17;100.00;49828.28;5038206;28;51012;-59
2021/10/28 02:59:55;;;;;;;;;15.25;15.00;;;;;-147.17;100.00;49828.28;5074285;28;50880;-58
2021/10/28 03:02:20;;;;;;;;;19.50;17.50;;;;;-147.17;100.00;49786.94;5062047;28;51789;-59
2021/10/28 03:04:45;;;;;;;;;22.50;21.25;;;;;-147.17;100.00;49812.53;5053630;28;51066;-58
2021/10/28 03:07:11;;;;;;;;;18.50;18.50;;;;;-147.17;100.00;49832.22;5057220;28;50981;-59
2021/10/28 03:09:36;;;;;;;;;19.50;18.25;;;;;-147.17;100.00;49802.69;5074239;28;50952;-58
2021/10/28 03:12:03;;;;;;;;;19.75;19.25;;;;;-147.17;100.00;49800.72;5069890;28;51037;-59
2021/10/28 03:14:40;;;;;;;;;20.00;19.25;;;;;-147.17;100.00;49792.84;5053464;28;51213;-58
2021/10/28 03:27:50;;;;;;;;;18.75;17.25;;;;;-147.17;100.00;49828.28;5072333;28;50893;-58
2021/10/28 03:30:15;;;;;;;;;19.25;19.25;;;;;-147.17;100.00;49783.03;5066681;28;51250;-58
2021/10/28 03:32:41;;;;;;;;;20.75;18.00;;;;;-147.17;100.00;49808.59;5053023;28;50979;-58
2021/10/28 03:35:10;;;;;;;;;10.50;10.50;;;;;-147.17;100.00;49798.75;5052738;28;51176;-58
2021/10/28 03:37:41;;;;;;;;;21.25;20.25;;;;;-147.17;100.00;49788.91;5037024;28;51144;-57
2021/10/28 03:56:11;;;;;;;;;18.75;18.00;;;;;-147.17;100.00;49806.63;5059348;28;51073;-59
2021/10/28 04:20:19;;;;;;;;;20.25;19.00;;;;;-147.17;100.00;49830.25;5071976;28;51091;-59
2021/10/28 04:30:55;;;;;;;;;17.75;17.75;;;;;-147.17;100.00;49808.59;5052593;28;51202;-59
2021/10/28 04:33:21;;;;;;;;;20.25;20.25;;;;;-147.17;100.00;49798.75;5052821;28;51268;-59
2021/10/28 04:35:47;;;;;;;;;18.25;18.25;;;;;-147.17;100.00;49802.69;5053956;28;53206;-59
2021/10/28 04:38:13;;;;;;;;;18.25;17.50;;;;;-147.17;100.00;49767.28;5054616;28;51284;-59
2021/10/28 04:40:39;;;;;;;;;20.25;20.00;;;;;-147.17;100.00;49802.69;5064049;28;51261;-59
2021/10/28 04:43:04;;;;;;;;;17.25;15.25;;;;;-147.17;100.00;49753.50;5056658;28;51502;-59
2021/10/28 04:45:29;;;;;;;;;17.25;15.25;;;;;-147.17;100.00;49808.59;5052282;28;51941;-59
2021/10/28 04:47:55;;;;;;;;;26.00;22.00;;;;;-147.17;100.00;49796.78;5052180;28;51093;-59
2021/10/28 04:50:20;;;;;;;;;21.00;21.00;;;;;-147.17;100.00;49796.78;5051727;28;51099;-59
2021/10/28 04:52:46;;;;;;;;;20.25;19.00;;;;;-147.17;100.00;49804.66;5052443;28;51265;-59
2021/10/28 04:55:11;;;;;;;;;19.75;18.50;;;;;-147.17;100.00;49812.53;5056795;28;52421;-59
2021/10/28 04:57:36;;;;;;;;;21.50;19.25;;;;;-147.17;100.00;49820.41;5069871;28;51082;-58
2021/10/28 05:00:04;;;;;;;;;20.50;19.75;;;;;-147.17;100.00;49808.59;5071378;28;51184;-59
2021/10/28 05:02:30;;;;;;;;;19.25;18.25;;;;;-147.17;100.00;49808.59;5031209;28;51036;-59
2021/10/28 05:04:55;;;;;;;;;20.50;19.25;;;;;-147.17;100.00;49790.88;5071097;28;51217;-59
2021/10/28 05:07:21;;;;;;;;;20.00;18.00;;;;;-147.17;100.00;49840.09;5067144;28;50963;-60
2021/10/28 05:09:46;;;;;;;;;21.00;21.00;;;;;-147.17;100.00;49818.44;5063173;28;51060;-59
2021/10/28 05:12:12;;;;;;;;;23.00;20.00;;;;;-147.17;100.00;49824.34;5075935;28;50966;-56
2021/10/28 05:14:37;;;;;;;;;17.50;15.75;;;;;-147.17;100.00;49792.84;5074965;28;51670;-59
2021/10/28 05:17:03;;;;;;;;;21.50;21.25;;;;;-147.17;100.00;49838.13;5073384;28;50995;-59
2021/10/28 05:19:31;;;;;;;;;21.50;19.75;;;;;-147.17;100.00;49818.44;5063722;28;51183;-59
2021/10/28 05:21:56;;;;;;;;;22.25;21.50;;;;;-147.17;100.00;49796.78;5057873;28;51396;-58
2021/10/28 05:24:21;;;;;;;;;24.50;22.75;;;;;-147.17;100.00;49828.28;5064376;28;51241;-60
2021/10/28 05:26:47;;;;;;;;;20.50;19.75;;;;;-147.17;100.00;49796.78;5072668;28;50981;-59
2021/10/28 05:29:12;;;;;;;;;19.75;18.50;;;;;-147.17;100.00;49812.53;5064292;28;50984;-58
2021/10/28 05:31:38;;;;;;;;;20.50;19.75;;;;;-147.17;100.00;49777.13;5055157;28;50890;-59
2021/10/28 05:34:03;;;;;;;;;23.75;22.00;;;;;-147.17;100.00;49767.28;5057241;28;51722;-57
2021/10/28 05:36:29;;;;;;;;;18.50;17.25;;;;;-147.17;100.00;49790.88;5057349;28;51021;-58
2021/10/28 05:38:54;;;;;;;;;24.00;21.25;;;;;-147.17;100.00;49816.47;5064673;28;51083;-58
2021/10/28 05:41:20;;;;;;;;;19.75;19.00;;;;;-147.17;100.00;49826.31;5071517;28;52177;-58
2021/10/28 05:43:45;;;;;;;;;19.75;19.25;;;;;-147.17;100.00;49800.72;5074491;28;51788;-58
2021/10/28 05:46:11;;;;;;;;;20.00;19.75;;;;;-147.17;100.00;49800.72;5058105;28;50998;-58
2021/10/28 05:48:36;;;;;;;;;19.25;19.00;;;;;-147.17;100.00;49814.50;5054871;28;51232;-59
2021/10/28 05:51:02;;;;;;;;;22.75;21.00;;;;;-147.17;100.00;49792.84;5053917;28;51280;-58
2021/10/28 05:53:28;;;;;;;;;19.00;19.00;;;;;-147.17;100.00;49798.75;5072366;28;51695;-58
2021/10/28 05:55:54;;;;;;;;;18.25;18.00;;;;;-147.17;100.00;49784.97;5060679;28;51458;-58
2021/10/28 05:58:19;;;;;;;;;18.75;18.75;;;;;-147.17;100.00;49796.78;5054011;28;51465;-59
2021/10/28 06:00:44;;;;;;;;;24.75;21.50;;;;;-147.17;100.00;49788.91;5056788;28;51272;-58
2021/10/28 06:03:12;;;;;;;;;21.00;20.50;;;;;-147.17;100.00;49781.06;5056690;28;50969;-58
2021/10/28 06:05:37;;;;;;;;;18.75;17.75;;;;;-147.17;100.00;49816.47;5053733;28;50988;-58
2021/10/28 06:08:03;;;;;;;;;20.50;19.75;;;;;-147.17;100.00;49798.75;5054193;28;50877;-59
2021/10/28 06:10:28;;;;;;;;;19.00;18.25;;;;;-147.17;100.00;49800.72;5051876;28;51149;-58
2021/10/28 06:12:58;;;;;;;;;20.00;19.50;;;;;-147.17;100.00;49796.78;5063288;28;51898;-59
2021/10/28 06:15:24;;;;;;;;;23.25;21.75;;;;;-147.17;100.00;49790.88;5055438;28;51082;-58
2021/10/28 06:17:58;;;;;;;;;19.50;19.50;;;;;-147.17;100.00;49806.63;5035727;28;50970;-58
2021/10/28 06:20:24;;;;;;;;;21.75;21.00;;;;;-147.17;100.00;49836.16;5053413;28;50930;-58
2021/10/28 06:22:50;;;;;;;;;19.75;19.75;;;;;-147.17;100.00;49844.03;5052916;28;52380;-58
2021/10/28 06:25:16;;;;;;;;;22.25;20.00;;;;;-147.17;100.00;49802.69;5055382;28;51239;-56
2021/10/28 06:27:42;;;;;;;;;20.00;19.00;;;;;-147.17;100.00;49792.84;5067706;28;50993;-58
2021/10/28 06:30:08;;;;;;;;;22.25;20.00;;;;;-147.17;100.00;49814.50;5054539;28;50903;-58
2021/10/28 06:32:35;;;;;;;;;22.00;20.00;;;;;-147.17;100.00;49814.50;5035128;28;53552;-58
2021/10/28 06:35:03;;;;;;;;;20.00;19.50;;;;;-147.17;100.00;49820.41;5053374;28;51224;-58
2021/10/28 06:37:29;;;;;;;;;21.25;20.50;;;;;-147.17;100.00;49846.00;5054174;28;50959;-57
2021/10/28 06:39:54;;;;;;;;;22.50;21.75;;;;;-147.17;100.00;49828.28;5058759;28;51263;-57
2021/10/28 06:42:20;;;;;;;;;24.50;22.75;;;;;-147.17;100.00;49828.28;5061370;28;50943;-57
2021/10/28 06:44:45;;;;;;;;;20.25;19.75;;;;;-147.17;100.00;49840.09;5054054;28;51281;-57
2021/10/28 06:47:11;;;;;;;;;20.25;20.00;;;;;-147.17;100.00;49816.47;5065824;28;50904;-57
2021/10/28 06:49:40;;;;;;;;;18.75;18.00;;;;;-147.17;100.00;49824.34;5073700;28;51034;-56
2021/10/28 06:52:09;;;;;;;;;23.75;19.50;;;;;-147.17;100.00;49784.97;5073379;28;51068;-56
2021/10/28 06:54:41;;;;;;;;;24.25;20.50;;;;;-147.17;100.00;49810.56;5055825;28;51145;-57
2021/10/28 07:02:37;;;;;;;;;24.25;23.00;;;;;-147.17;100.00;49796.78;5066546;28;50939;-57
2021/10/28 07:05:04;;;;;;;;;23.50;23.00;;;;;-147.17;100.00;49812.53;5065287;28;51192;-57
2021/10/28 07:07:31;;;;;;;;;25.00;24.25;;;;;-147.17;100.00;49800.72;5073108;28;51201;-57
2021/10/28 07:12:37;;;;;;;;;24.25;23.25;;;;;-147.17;100.00;49810.56;5072800;28;51113;-57
2021/10/28 08:13:34;;;;;;;;;29.25;27.50;;;;;-147.17;100.00;49741.69;5037745;28;51186;-55
2021/10/28 08:19:03;;;;;;;;;28.75;28.50;;;;;-147.17;100.00;49757.44;5061581;28;51207;-56
2021/10/28 08:21:46;;;;;;;;;29.00;23.50;;;;;-147.17;100.00;49765.31;5057928;28;51243;-55
2021/10/28 08:29:35;;;;;;;;;26.00;24.50;;;;;-147.17;100.00;49816.47;5065503;28;51150;-57
2021/10/28 08:32:03;;;;;;;;;28.50;26.25;;;;;-147.17;100.00;49844.03;5053843;28;50893;-56
2021/10/28 08:34:32;;;;;;;;;29.75;28.75;;;;;-147.17;100.00;49769.25;5065664;28;51049;-58
2021/10/28 08:37:11;;;;;;;;;26.00;24.50;;;;;-147.17;100.00;49796.78;5069349;28;51709;-59
2021/10/28 08:39:38;;;;;;;;;27.25;25.75;;;;;-147.17;100.00;49816.47;5068237;28;50953;-57
2021/10/28 08:42:11;;;;;;;;;25.75;25.25;;;;;-147.17;100.00;49814.50;5050351;28;51610;-58
2021/10/28 08:44:41;;;;;;;;;27.75;27.50;;;;;-147.17;100.00;49895.22;5070721;28;51221;-57
2021/10/28 08:47:11;;;;;;;;;30.50;30.00;;;;;-147.17;100.00;49822.38;5074676;28;52107;-58
2021/10/28 08:50:25;;;;;;;;;28.00;26.75;;;;;-147.17;100.00;49865.69;5067824;28;51132;-59
2021/10/28 08:55:17;;;;;;;;;29.50;27.50;;;;;-147.17;100.00;49853.88;5062647;28;51137;-57
2021/10/28 09:25:38;;;;;;;;;27.00;25.75;;;;;-147.17;100.00;49970.00;5066422;28;50853;-57
2021/10/28 09:28:33;;;;;;;;;29.00;27.25;;;;;-147.17;97.72;50135.34;5073009;28;50982;-56
2021/10/28 09:31:18;;;;;;;;;27.25;25.75;;;;;-147.17;98.64;50133.38;5069103;28;51491;-57
2021/10/28 09:34:01;;;;;;;;;30.75;27.50;;;;;-147.17;99.01;50044.81;5069480;28;51156;-56
2021/10/28 09:45:15;;;;;;;;;31.75;29.00;;;;;-147.17;96.31;50076.31;5066426;28;51046;-57
2021/10/28 09:50:38;;;;;;;;;29.75;28.75;;;;;-147.17;95.54;50135.34;5047468;28;51322;-56
2021/10/28 09:53:35;;;;;;;;;27.50;25.50;;;;;-147.17;94.21;50210.16;5063946;28;52238;-56
2021/10/28 09:58:39;;;;;;;;;27.00;26.75;;;;;-147.17;94.22;50194.41;5043755;28;51207;-57
2021/10/28 10:01:08;;;;;;;;;30.25;29.00;;;;;-147.17;94.09;50227.88;5061110;28;51412;-56
2021/10/28 10:03:39;;;;;;;;;28.25;26.00;;;;;-147.17;93.38;50253.47;5064546;28;52842;-56
2021/10/28 10:06:06;;;;;;;;;27.50;24.25;;;;;-147.17;94.65;50202.28;5055707;27;51154;-56
2021/10/28 10:08:33;;;;;;;;;22.25;19.50;;;;;-147.17;94.29;50180.63;5062887;28;51148;-55
2021/10/28 10:10:59;;;;;;;;;27.25;25.50;;;;;-147.17;95.27;50182.59;5056174;28;54931;-56
2021/10/28 10:13:26;;;;;;;;;27.50;27.50;;;;;-147.17;95.72;50170.78;5064266;28;52274;-55
2021/10/28 10:16:04;;;;;;;;;30.50;29.50;;;;;-147.17;96.13;50186.53;5043510;28;51171;-55
2021/10/28 10:18:32;;;;;;;;;27.75;25.75;;;;;-147.17;97.62;50153.06;5068125;27;51127;-56
2021/10/28 12:50:47;;;;;;;;;16.00;15.67;;;;;-147.17;75.19;50857.84;5056798;28;51285;-57
2021/10/28 13:05:22;;;;;;;;;13.67;11.00;;;;;-147.17;70.86;51050.78;5056902;28;51125;-57
2021/10/28 13:48:28;;;;;;;;;12.00;11.33;;;;;-147.17;77.57;50786.97;5055661;28;51458;-57
2021/10/28 13:53:50;;;;;;;;;8.00;7.33;;;;;-147.17;78.10;50785.00;5056513;28;51271;-58
2021/10/28 13:59:07;;;;;;;;;8.33;8.00;;;;;-147.17;78.07;50824.38;5059475;28;51394;-57
2021/10/28 14:24:59;;;;;;;;;11.00;10.00;;;;;-147.17;79.27;50749.56;4945032;28;51395;-57
2021/10/28 15:28:21;;;;;;;;;6.67;6.67;;;;;-147.17;78.27;50836.19;5054608;28;51178;-56
2021/10/28 15:31:10;;;;;;;;;10.67;9.00;;;;;-147.17;77.94;50779.09;5054740;28;53725;-56
2021/10/28 16:22:10;;;;;;;;;10.00;10.00;;;;;-147.17;79.79;50759.41;5048672;28;51363;-54
2021/10/28 16:24:36;;;;;;;;;9.00;9.00;;;;;-147.17;79.60;50733.81;5053371;28;53217;-56
2021/10/28 16:27:03;;;;;;;;;12.00;11.00;;;;;-147.17;80.12;50755.47;5053508;28;53158;-58
2021/10/28 16:29:29;;;;;;;;;10.00;9.33;;;;;-147.17;80.25;50765.31;5052792;28;51376;-58
2021/10/28 16:31:55;;;;;;;;;9.00;8.67;;;;;-147.17;80.36;50698.38;5048135;28;53258;-58
2021/10/28 16:34:23;;;;;;;;;13.00;13.00;;;;;-147.17;80.43;50727.91;5053074;28;51514;-57
2021/10/28 16:36:49;;;;;;;;;12.67;12.67;;;;;-147.17;80.82;50706.25;5035259;28;51930;-57
2021/10/28 16:39:16;;;;;;;;;11.67;11.67;;;;;-147.17;80.98;50708.22;5052657;28;51368;-58
2021/10/28 16:41:46;;;;;;;;;15.33;13.67;;;;;-147.17;81.06;50737.75;5052203;28;51153;-57
2021/10/28 16:44:16;;;;;;;;;11.00;10.67;;;;;-147.17;80.96;50737.75;5051905;28;51406;-59
2021/10/28 16:46:43;;;;;;;;;15.00;13.67;;;;;-147.17;81.29;50698.38;5053671;28;51334;-57
2021/10/28 16:49:10;;;;;;;;;12.00;11.33;;;;;-147.17;81.41;50722.00;5051869;28;51204;-58
2021/10/28 16:51:36;;;;;;;;;14.00;14.00;;;;;-147.17;81.41;50733.81;5052122;28;51273;-57
2021/10/28 16:54:02;;;;;;;;;13.67;12.00;;;;;-147.17;81.52;50714.13;5049829;28;51362;-57
2021/10/28 16:56:28;;;;;;;;;12.00;11.33;;;;;-147.17;81.58;50723.97;5053391;28;53534;-57
2021/10/28 16:58:54;;;;;;;;;13.67;13.33;;;;;-147.17;81.90;50725.94;5052260;28;51312;-57
2021/10/28 17:01:20;;;;;;;;;16.00;16.00;;;;;-147.17;81.99;50694.44;5053743;28;51165;-57
2021/10/28 17:03:45;;;;;;;;;12.00;12.00;;;;;-147.17;82.38;50729.88;5052110;28;51244;-58
2021/10/28 17:06:15;;;;;;;;;13.33;13.00;;;;;-147.17;82.46;50737.75;5054242;28;53207;-57
2021/10/28 17:08:41;;;;;;;;;13.00;13.00;;;;;-147.17;82.40;50678.69;5057113;28;51186;-57
2021/10/28 17:11:07;;;;;;;;;15.00;13.00;;;;;-147.17;82.71;50725.94;5037193;28;51383;-57
2021/10/28 17:13:33;;;;;;;;;14.33;13.00;;;;;-147.17;82.81;50690.50;5055068;28;51267;-58
2021/10/28 17:15:59;;;;;;;;;13.33;12.33;;;;;-147.17;82.96;50702.31;5055909;28;52083;-56
2021/10/28 17:18:24;;;;;;;;;15.33;15.00;;;;;-147.17;82.91;50702.31;5055939;28;53270;-58
2021/10/28 17:20:51;;;;;;;;;11.00;10.33;;;;;-147.17;83.19;50733.81;5055564;28;53148;-57
2021/10/28 17:23:18;;;;;;;;;13.00;11.00;;;;;-147.17;83.45;50688.53;5035136;28;51242;-57
2021/10/28 17:25:51;;;;;;;;;17.00;14.00;;;;;-147.17;83.67;50702.31;5055775;28;51852;-57
2021/10/28 17:28:17;;;;;;;;;17.67;16.33;;;;;-147.17;83.98;50684.59;5056030;28;53193;-56
2021/10/28 17:30:43;;;;;;;;;18.50;16.75;;;;;-147.17;84.13;50668.84;5056212;28;51295;-58
2021/10/28 17:33:09;;;;;;;;;14.33;14.33;;;;;-147.17;84.10;50684.59;5056130;28;53355;-58
2021/10/28 17:35:34;;;;;;;;;14.67;14.33;;;;;-147.17;84.25;50680.66;5055940;28;52194;-58
2021/10/28 17:38:01;;;;;;;;;18.00;16.50;;;;;-147.17;84.19;50694.44;5037437;28;51323;-58
2021/10/28 17:40:27;;;;;;;;;15.67;15.67;;;;;-147.17;84.60;50664.91;5056384;28;51351;-58
2021/10/28 17:42:54;;;;;;;;;13.33;12.33;;;;;-147.17;84.85;50623.56;5056346;28;53305;-58
2021/10/28 17:45:25;;;;;;;;;17.33;16.67;;;;;-147.17;85.09;50660.97;5056245;28;52913;-57
2021/10/28 17:47:50;;;;;;;;;18.75;17.50;;;;;-147.17;85.37;50700.34;5056679;28;51284;-58
2021/10/28 17:50:16;;;;;;;;;18.75;18.00;;;;;-147.17;85.55;50670.81;5055724;28;53494;-58
2021/10/28 17:52:42;;;;;;;;;18.00;16.67;;;;;-147.17;85.65;50643.25;5055043;28;51521;-58
2021/10/28 17:55:09;;;;;;;;;19.75;18.00;;;;;-147.17;85.96;50625.53;5055913;28;53106;-58
2021/10/28 17:57:37;;;;;;;;;20.00;19.00;;;;;-147.17;86.23;50657.03;5055992;28;51270;-59
2021/10/28 18:00:04;;;;;;;;;18.50;17.50;;;;;-147.17;86.40;50635.38;5056067;28;51210;-59
2021/10/28 18:02:30;;;;;;;;;17.67;16.00;;;;;-147.17;86.61;50635.38;5033338;28;52990;-58
2021/10/28 18:04:55;;;;;;;;;21.75;20.00;;;;;-147.17;86.68;50660.97;5035864;28;52635;-59
2021/10/28 18:07:21;;;;;;;;;17.25;17.00;;;;;-147.17;86.91;50631.44;5056704;28;51443;-58
2021/10/28 18:09:46;;;;;;;;;16.25;14.50;;;;;-147.17;87.12;50599.94;5055550;28;51306;-58
2021/10/28 18:12:12;;;;;;;;;18.25;17.00;;;;;-147.17;87.35;50649.16;5056131;28;52776;-59
2021/10/28 18:14:37;;;;;;;;;19.00;17.25;;;;;-147.17;87.47;50603.88;5038312;28;51719;-58
2021/10/28 18:17:03;;;;;;;;;16.33;16.33;;;;;-147.17;87.62;50627.50;5055098;28;51310;-57
2021/10/28 18:19:28;;;;;;;;;19.00;19.00;;;;;-147.17;87.67;50631.44;5056425;28;51191;-58
2021/10/28 18:21:56;;;;;;;;;19.75;19.00;;;;;-147.17;87.95;50588.13;5056197;28;53302;-58
2021/10/28 18:24:23;;;;;;;;;19.00;19.00;;;;;-147.17;88.27;50603.88;5055488;28;54873;-58
2021/10/28 18:26:48;;;;;;;;;23.00;21.50;;;;;-147.17;88.32;50584.19;5056397;28;51256;-58
2021/10/28 18:29:14;;;;;;;;;24.00;21.25;;;;;-147.17;88.74;50623.56;5056892;28;51366;-56
2021/10/28 18:31:40;;;;;;;;;22.25;19.75;;;;;-147.17;88.72;50653.09;5055071;28;51303;-57
2021/10/28 18:34:06;;;;;;;;;18.00;17.50;;;;;-147.17;88.82;50603.88;5051250;28;52042;-57
2021/10/28 18:36:33;;;;;;;;;21.25;20.50;;;;;-147.17;89.07;50584.19;5054873;28;51400;-57
2021/10/28 18:39:00;;;;;;;;;23.75;22.25;;;;;-147.17;89.30;50607.81;5055022;28;51352;-57
2021/10/28 18:41:26;;;;;;;;;20.25;20.25;;;;;-147.17;89.45;50599.94;5038747;28;53302;-57
2021/10/28 18:43:52;;;;;;;;;20.25;20.00;;;;;-147.17;89.48;50607.81;5055299;28;51887;-58
2021/10/28 18:46:21;;;;;;;;;26.50;25.25;;;;;-147.17;89.39;50588.13;5049446;28;51149;-58
2021/10/28 18:48:58;;;;;;;;;23.25;23.00;;;;;-147.17;89.52;50592.06;5052446;28;51510;-56
2021/10/28 18:51:23;;;;;;;;;24.50;21.50;;;;;-147.17;89.69;50625.53;5013946;28;51416;-58
2021/10/28 18:53:49;;;;;;;;;21.25;21.00;;;;;-147.17;89.85;50578.28;5013233;28;51349;-57
2021/10/28 18:56:17;;;;;;;;;22.50;21.50;;;;;-147.17;90.00;50607.81;5014177;28;51338;-58
2021/10/28 18:58:43;;;;;;;;;17.50;17.00;;;;;-147.17;89.82;50596.00;5015518;28;52451;-58
2021/10/28 19:01:11;;;;;;;;;17.25;16.25;;;;;-147.17;90.06;50592.06;5008130;28;51184;-58
2021/10/28 19:03:39;;;;;;;;;18.00;17.33;;;;;-147.17;90.21;50607.81;5008398;28;52413;-57
2021/10/28 19:06:05;;;;;;;;;20.00;19.25;;;;;-147.17;90.59;50592.06;5013864;28;51164;-58
2021/10/28 19:08:30;;;;;;;;;19.75;19.75;;;;;-147.17;90.41;50556.63;5013423;28;51328;-58
2021/10/28 19:10:56;;;;;;;;;13.75;12.50;;;;;-147.17;90.75;50588.13;5010638;28;51331;-58
2021/10/28 19:13:21;;;;;;;;;19.50;18.00;;;;;-147.17;90.87;50590.09;5010469;28;51720;-58
2021/10/28 19:15:47;;;;;;;;;25.50;25.00;;;;;-147.17;90.84;50534.97;5012500;28;51429;-58
2021/10/28 19:18:13;;;;;;;;;19.00;18.00;;;;;-147.17;91.09;50584.19;5011073;28;53643;-58
2021/10/28 19:20:39;;;;;;;;;20.25;19.75;;;;;-147.17;91.34;50582.22;5008306;28;53091;-57
2021/10/28 19:23:07;;;;;;;;;20.00;18.50;;;;;-147.17;91.22;50617.66;5007737;28;53202;-56
2021/10/28 19:25:34;;;;;;;;;21.50;21.25;;;;;-147.17;91.29;50564.50;5010206;28;51501;-58
2021/10/28 19:28:00;;;;;;;;;28.25;24.50;;;;;-147.17;91.60;50550.72;5007715;28;51255;-57
2021/10/28 19:33:02;;;;;;;;;11.25;11.25;;;;;-147.17;91.63;50562.53;5008139;28;51754;-57
2021/10/28 19:35:30;;;;;;;;;23.00;21.50;;;;;-147.17;91.78;50580.25;5009683;28;53180;-57
2021/10/28 19:41:03;;;;;;;;;32.25;29.75;;;;;-147.17;92.33;50564.50;5009616;28;52221;-59
2021/10/28 19:46:14;;;;;;;;;22.75;21.50;;;;;-147.17;92.64;50529.06;5009373;28;51265;-58
2021/10/28 19:48:40;;;;;;;;;25.75;24.75;;;;;-147.17;92.68;50552.69;5007676;28;51446;-58
2021/10/28 19:51:07;;;;;;;;;18.00;17.75;;;;;-147.17;92.77;50548.75;5043722;28;51180;-58
2021/10/28 19:53:33;;;;;;;;;22.00;21.50;;;;;-147.17;93.14;50544.81;5053928;28;52382;-58
2021/10/28 19:56:15;;;;;;;;;22.75;22.75;;;;;-147.17;93.26;50536.94;5054826;28;51246;-58